createdAt,value
2023-03-04T00:00:36.193Z,11.27
2023-03-04T00:03:04.086Z,11.53
2023-03-04T00:05:31.988Z,12.43
2023-03-04T00:08:00.243Z,10.43
2023-03-04T00:10:28.016Z,11.80
2023-03-04T00:12:57.198Z,12.80
2023-03-04T00:15:25.236Z,11.43
2023-03-04T00:17:52.890Z,11.50
2023-03-04T00:20:20.761Z,12.00
2023-03-04T00:22:48.451Z,11.07
2023-03-04T00:25:18.361Z,11.67
2023-03-04T00:27:46.269Z,10.30
2023-03-04T00:30:15.645Z,11.63
2023-03-04T00:32:43.917Z,11.50
2023-03-04T00:35:12.139Z,11.37
2023-03-04T00:37:39.940Z,12.97
2023-03-04T00:40:08.224Z,10.33
2023-03-04T00:42:35.945Z,11.17
2023-03-04T00:45:03.682Z,12.27
2023-03-04T00:47:33.044Z,11.77
2023-03-04T00:50:00.933Z,12.83
2023-03-04T00:52:28.838Z,12.47
2023-03-04T00:54:56.614Z,11.53
2023-03-04T00:57:25.283Z,11.97
2023-03-04T00:59:53.099Z,12.80
2023-03-04T01:02:20.933Z,11.73
2023-03-04T01:04:50.447Z,13.27
2023-03-04T01:07:18.194Z,12.00
2023-03-04T01:09:46.303Z,12.63
2023-03-04T01:12:14.202Z,12.00
2023-03-04T01:14:41.953Z,12.20
2023-03-04T01:17:09.635Z,12.47
2023-03-04T01:19:37.546Z,12.60
2023-03-04T01:22:06.661Z,12.37
2023-03-04T01:24:34.416Z,12.03
2023-03-04T01:27:02.558Z,11.47
2023-03-04T01:29:30.497Z,11.87
2023-03-04T01:31:58.749Z,11.83
2023-03-04T01:34:26.600Z,11.07
2023-03-04T01:36:54.395Z,11.87
2023-03-04T01:39:24.761Z,12.20
2023-03-04T01:41:52.673Z,11.83
2023-03-04T01:44:20.548Z,10.87
2023-03-04T01:46:50.283Z,11.83
2023-03-04T01:49:18.388Z,13.83
2023-03-04T01:51:49.334Z,14.07
2023-03-04T01:54:17.591Z,14.07
2023-03-04T01:56:47.825Z,16.13
2023-03-04T01:59:16.816Z,14.97
2023-03-04T02:01:45.427Z,14.83
2023-03-04T02:04:13.615Z,14.30
2023-03-04T02:06:42.120Z,14.37
2023-03-04T02:09:10.375Z,14.57
2023-03-04T02:11:39.165Z,13.20
2023-03-04T02:14:09.108Z,13.43
2023-03-04T02:16:36.926Z,12.17
2023-03-04T02:19:06.733Z,11.70
2023-03-04T02:21:35.895Z,12.97
2023-03-04T02:24:08.090Z,12.83
2023-03-04T02:26:37.524Z,11.47
2023-03-04T02:29:06.375Z,13.27
2023-03-04T02:31:35.268Z,12.87
2023-03-04T02:34:04.533Z,11.70
2023-03-04T02:36:33.545Z,10.83
2023-03-04T02:39:03.874Z,11.87
2023-03-04T02:41:33.508Z,12.33
2023-03-04T02:44:02.564Z,11.60
2023-03-04T02:46:30.512Z,12.13
2023-03-04T02:48:58.383Z,11.47
2023-03-04T02:51:26.000Z,11.63
2023-03-04T02:53:53.879Z,11.37
2023-03-04T02:56:21.652Z,12.20
2023-03-04T02:58:49.746Z,12.13
2023-03-04T03:01:19.039Z,12.27
2023-03-04T03:03:46.834Z,11.87
2023-03-04T03:06:14.924Z,11.53
2023-03-04T03:08:42.731Z,13.27
2023-03-04T03:11:10.576Z,12.00
2023-03-04T03:13:38.777Z,11.87
2023-03-04T03:16:07.215Z,12.17
2023-03-04T03:18:36.458Z,11.27
2023-03-04T03:21:04.369Z,11.77
2023-03-04T03:23:32.191Z,12.43
2023-03-04T03:25:59.876Z,11.87
2023-03-04T03:28:28.017Z,11.50
2023-03-04T03:30:55.914Z,11.43
2023-03-04T03:33:23.731Z,12.37
2023-03-04T03:35:53.335Z,11.97
2023-03-04T03:38:21.077Z,12.23
2023-03-04T03:40:49.131Z,11.87
2023-03-04T03:43:16.929Z,13.43
2023-03-04T03:45:44.699Z,12.70
2023-03-04T03:48:12.674Z,13.00
2023-03-04T03:50:40.745Z,13.40
2023-03-04T03:53:09.976Z,10.90
2023-03-04T03:55:39.034Z,12.67
2023-03-04T03:58:06.885Z,12.73
2023-03-04T04:00:34.673Z,12.97
2023-03-04T04:03:03.873Z,13.60
2023-03-04T04:05:32.373Z,12.30
2023-03-04T04:08:00.393Z,13.37
2023-03-04T04:10:29.765Z,14.37
2023-03-04T04:12:57.765Z,12.93
2023-03-04T04:15:25.451Z,12.87
2023-03-04T04:17:53.348Z,13.30
2023-03-04T04:20:25.764Z,13.63
2023-03-04T04:22:54.010Z,14.80
2023-03-04T04:25:21.749Z,13.80
2023-03-04T04:27:51.165Z,14.73
2023-03-04T04:30:19.415Z,12.73
2023-03-04T04:32:47.126Z,13.97
2023-03-04T04:35:15.035Z,13.87
2023-03-04T04:37:42.832Z,13.93
2023-03-04T04:40:11.685Z,15.20
2023-03-04T04:42:39.656Z,14.30
2023-03-04T04:45:10.519Z,12.87
2023-03-04T04:47:38.527Z,14.30
2023-03-04T04:50:06.997Z,14.57
2023-03-04T04:52:35.048Z,13.43
2023-03-04T04:55:03.188Z,12.93
2023-03-04T04:57:30.994Z,13.17
2023-03-04T04:59:58.690Z,12.47
2023-03-04T05:02:27.970Z,10.97
2023-03-04T05:04:55.958Z,11.17
2023-03-04T05:07:24.188Z,10.83
2023-03-04T05:09:51.989Z,11.97
2023-03-04T05:12:20.048Z,9.57
2023-03-04T05:14:50.560Z,9.97
2023-03-04T05:17:18.582Z,10.13
2023-03-04T05:19:48.127Z,9.80
2023-03-04T05:22:18.188Z,9.93
2023-03-04T05:24:46.185Z,9.50
2023-03-04T05:27:13.998Z,10.20
2023-03-04T05:29:44.893Z,9.77
2023-03-04T05:32:12.960Z,10.57
2023-03-04T05:34:41.150Z,12.33
2023-03-04T05:37:10.712Z,13.50
2023-03-04T05:39:38.804Z,13.63
2023-03-04T05:42:07.095Z,14.40
2023-03-04T05:44:35.225Z,11.50
2023-03-04T05:47:03.295Z,11.43
2023-03-04T05:49:31.537Z,11.23
2023-03-04T05:51:59.509Z,9.97
2023-03-04T05:54:28.593Z,9.70
2023-03-04T05:56:56.322Z,9.17
2023-03-04T05:59:24.496Z,10.20
2023-03-04T06:01:52.671Z,9.30
2023-03-04T06:04:20.577Z,9.97
2023-03-04T06:06:48.650Z,10.30
2023-03-04T06:09:16.926Z,10.43
2023-03-04T06:11:46.361Z,10.23
2023-03-04T06:14:14.702Z,9.30
2023-03-04T06:16:42.514Z,10.23
2023-03-04T06:19:11.470Z,10.83
2023-03-04T06:21:39.248Z,11.03
2023-03-04T06:24:07.272Z,17.60
2023-03-04T06:26:35.108Z,15.73
2023-03-04T06:29:05.634Z,14.97
2023-03-04T06:31:33.676Z,16.43
2023-03-04T06:34:01.665Z,16.60
2023-03-04T06:36:29.492Z,15.47
2023-03-04T06:38:58.612Z,16.90
2023-03-04T06:41:26.436Z,17.57
2023-03-04T06:43:55.259Z,21.37
2023-03-04T06:46:24.869Z,19.83
2023-03-04T06:48:52.873Z,19.97
2023-03-04T06:51:20.812Z,17.70
2023-03-04T06:53:48.526Z,19.57
2023-03-04T06:56:17.451Z,20.43
2023-03-04T06:58:45.321Z,17.90
2023-03-04T07:01:13.837Z,16.57
2023-03-04T07:03:43.355Z,19.13
2023-03-04T07:06:11.860Z,22.30
2023-03-04T07:08:39.899Z,23.03
2023-03-04T07:11:08.099Z,21.83
2023-03-04T07:13:38.445Z,19.43
2023-03-04T07:16:07.175Z,22.77
2023-03-04T07:18:35.068Z,20.23
2023-03-04T07:21:05.050Z,19.90
2023-03-04T07:23:33.280Z,20.30
2023-03-04T07:26:01.209Z,19.13
2023-03-04T07:28:29.158Z,18.27
2023-03-04T07:30:57.027Z,20.37
2023-03-04T07:33:25.286Z,21.67
2023-03-04T07:36:02.761Z,19.80
2023-03-04T07:38:32.160Z,24.87
2023-03-04T07:41:00.344Z,25.97
2023-03-04T07:43:28.259Z,24.10
2023-03-04T07:46:00.128Z,22.17
2023-03-04T07:48:28.512Z,22.93
2023-03-04T07:51:14.010Z,22.73
2023-03-04T07:53:44.778Z,20.90
2023-03-04T07:56:13.197Z,21.17
2023-03-04T07:58:41.270Z,21.73
2023-03-04T08:01:12.565Z,20.83
2023-03-04T08:03:40.813Z,18.40
2023-03-04T08:06:10.644Z,16.40
2023-03-04T08:08:39.246Z,19.67
2023-03-04T08:11:08.834Z,21.87
2023-03-04T08:13:36.892Z,22.93
2023-03-04T08:16:05.672Z,23.20
2023-03-04T08:18:33.988Z,21.70
2023-03-04T08:21:02.000Z,21.53
2023-03-04T08:23:31.551Z,20.10
2023-03-04T08:26:00.652Z,23.53
2023-03-04T08:28:30.137Z,19.63
2023-03-04T08:30:58.044Z,20.43
2023-03-04T08:33:26.061Z,21.00
2023-03-04T08:35:54.005Z,17.77
2023-03-04T08:38:21.909Z,19.40
2023-03-04T08:40:53.538Z,21.77
2023-03-04T08:43:22.093Z,24.40
2023-03-04T08:45:51.400Z,20.23
2023-03-04T08:48:19.818Z,20.47
2023-03-04T08:50:47.595Z,18.80
2023-03-04T08:53:16.452Z,20.67
2023-03-04T08:55:44.764Z,18.90
2023-03-04T08:58:16.303Z,18.10
2023-03-04T09:00:45.557Z,15.60
2023-03-04T09:03:15.183Z,16.30
2023-03-04T09:05:43.224Z,16.90
2023-03-04T09:08:11.799Z,15.50
2023-03-04T09:10:39.684Z,13.87
2023-03-04T09:13:08.857Z,15.73
2023-03-04T09:15:37.340Z,15.53
2023-03-04T09:18:06.413Z,16.37
2023-03-04T09:20:35.759Z,16.80
2023-03-04T09:23:03.666Z,15.80
2023-03-04T09:25:31.910Z,11.93
2023-03-04T09:27:59.953Z,12.87
2023-03-04T09:30:29.076Z,15.17
2023-03-04T09:33:01.216Z,14.03
2023-03-04T09:35:30.188Z,14.10
2023-03-04T09:37:59.417Z,14.63
2023-03-04T09:40:29.130Z,14.60
2023-03-04T09:42:58.251Z,15.00
2023-03-04T09:45:28.566Z,14.83
2023-03-04T09:47:57.817Z,14.70
2023-03-04T09:50:25.629Z,15.57
2023-03-04T09:53:08.827Z,16.10
2023-03-04T09:55:39.408Z,15.00
2023-03-04T09:58:16.206Z,16.73
2023-03-04T10:00:45.888Z,16.23
2023-03-04T10:03:16.816Z,14.33
2023-03-04T10:05:47.973Z,15.43
2023-03-04T10:08:26.321Z,14.20
2023-03-04T10:10:56.643Z,13.67
2023-03-04T10:13:27.548Z,13.77
2023-03-04T10:15:55.681Z,13.63
2023-03-04T10:18:24.731Z,13.13
2023-03-04T10:20:55.359Z,14.03
2023-03-04T10:23:26.052Z,15.40
2023-03-04T10:25:55.513Z,13.67
2023-03-04T10:28:26.184Z,13.43
2023-03-04T10:30:57.783Z,15.57
2023-03-04T10:33:27.846Z,15.07
2023-03-04T10:35:59.075Z,13.10
2023-03-04T10:38:26.868Z,14.43
2023-03-04T10:40:56.146Z,17.90
2023-03-04T10:43:23.964Z,12.27
2023-03-04T10:45:55.875Z,13.37
2023-03-04T10:48:25.189Z,14.47
2023-03-04T10:50:55.080Z,14.73
2023-03-04T10:53:40.588Z,13.57
2023-03-04T10:56:31.980Z,14.70
2023-03-04T10:59:21.304Z,17.23
2023-03-04T11:01:51.324Z,13.00
2023-03-04T11:04:19.493Z,14.07
2023-03-04T11:06:47.739Z,13.80
2023-03-04T11:09:23.381Z,12.67
2023-03-04T11:11:54.449Z,12.60
2023-03-04T11:14:28.718Z,12.53
2023-03-04T11:16:58.354Z,14.03
2023-03-04T11:19:29.600Z,13.23
2023-03-04T11:21:58.992Z,13.13
2023-03-04T11:24:29.687Z,13.10
2023-03-04T11:27:00.880Z,11.90
2023-03-04T11:29:31.835Z,13.27
2023-03-04T11:32:02.841Z,14.37
2023-03-04T11:34:34.069Z,14.27
2023-03-04T11:37:03.696Z,14.40
2023-03-04T11:39:34.118Z,12.90
2023-03-04T11:42:06.584Z,12.77
2023-03-04T11:44:34.265Z,13.17
2023-03-04T11:47:10.410Z,14.10
2023-03-04T11:49:50.858Z,13.80
2023-03-04T11:52:22.513Z,17.03
2023-03-04T11:54:55.392Z,13.20
2023-03-04T11:57:31.907Z,13.13
2023-03-04T12:00:10.436Z,12.93
2023-03-04T12:02:44.791Z,12.77
2023-03-04T12:05:26.442Z,13.13
2023-03-04T12:08:00.837Z,12.80
2023-03-04T12:10:31.623Z,12.27
2023-03-04T12:13:08.256Z,13.00
2023-03-04T12:15:41.214Z,14.10
2023-03-04T12:18:21.166Z,12.03
2023-03-04T12:21:01.329Z,12.80
2023-03-04T12:23:44.287Z,14.63
2023-03-04T12:26:17.001Z,12.73
2023-03-04T12:28:52.859Z,13.10
2023-03-04T12:31:35.727Z,11.93
2023-03-04T12:34:24.545Z,11.97
2023-03-04T12:36:55.959Z,12.93
2023-03-04T12:39:28.242Z,13.30
2023-03-04T12:42:00.323Z,13.60
2023-03-04T12:44:32.633Z,13.17
2023-03-04T12:47:12.938Z,13.07
2023-03-04T12:49:49.442Z,15.33
2023-03-04T12:52:20.855Z,14.00
2023-03-04T12:54:53.224Z,14.50
2023-03-04T12:57:22.255Z,15.50
2023-03-04T12:59:56.183Z,14.87
2023-03-04T13:02:48.316Z,15.60
2023-03-04T13:05:21.416Z,12.27
2023-03-04T13:07:56.250Z,13.63
2023-03-04T13:10:25.807Z,14.10
2023-03-04T13:12:54.648Z,13.60
2023-03-04T13:15:35.317Z,13.00
2023-03-04T13:18:06.768Z,13.83
2023-03-04T13:20:36.359Z,13.23
2023-03-04T13:23:05.900Z,14.47
2023-03-04T13:25:38.993Z,14.27
2023-03-04T13:28:12.985Z,13.77
2023-03-04T13:30:43.968Z,13.33
2023-03-04T13:33:30.284Z,14.17
2023-03-04T13:36:02.493Z,13.27
2023-03-04T13:38:35.070Z,13.77
2023-03-04T13:41:18.061Z,13.63
2023-03-04T13:43:46.655Z,13.60
2023-03-04T13:46:32.187Z,14.60
2023-03-04T13:49:03.084Z,15.17
2023-03-04T13:51:32.885Z,14.77
2023-03-04T13:54:09.388Z,14.70
2023-03-04T13:56:38.164Z,16.03
2023-03-04T13:59:24.794Z,14.90
2023-03-04T14:02:01.695Z,15.43
2023-03-04T14:04:32.139Z,15.07
2023-03-04T14:07:00.809Z,15.10
2023-03-04T14:09:29.632Z,13.97
2023-03-04T14:11:59.886Z,14.57
2023-03-04T14:14:28.932Z,10.80
2023-03-04T14:16:59.047Z,15.10
2023-03-04T14:19:30.036Z,14.60
2023-03-04T14:21:58.796Z,15.27
2023-03-04T14:24:26.813Z,14.10
2023-03-04T14:27:05.901Z,13.70
2023-03-04T14:29:33.771Z,14.80
2023-03-04T14:32:03.104Z,15.57
2023-03-04T14:34:35.946Z,15.47
2023-03-04T14:37:05.752Z,14.87
2023-03-04T14:39:37.366Z,14.60
2023-03-04T14:42:08.792Z,14.63
2023-03-04T14:44:38.732Z,16.00
2023-03-04T14:47:12.263Z,15.23
2023-03-04T14:49:43.636Z,15.00
2023-03-04T14:52:26.350Z,14.10
2023-03-04T14:55:01.075Z,14.43
2023-03-04T14:57:31.846Z,16.53
2023-03-04T15:00:15.779Z,13.07
2023-03-04T15:02:44.478Z,13.60
2023-03-04T15:05:25.489Z,14.67
2023-03-04T15:07:55.020Z,15.17
2023-03-04T15:10:23.945Z,15.33
2023-03-04T15:12:53.550Z,15.27
2023-03-04T15:15:39.983Z,14.73
2023-03-04T15:18:26.999Z,15.23
2023-03-04T15:20:59.978Z,15.07
2023-03-04T15:23:28.141Z,14.57
2023-03-04T15:25:58.038Z,17.10
2023-03-04T15:28:26.161Z,16.27
2023-03-04T15:30:54.632Z,15.83
2023-03-04T15:33:22.417Z,16.67
2023-03-04T15:35:53.741Z,13.93
2023-03-04T15:38:23.867Z,15.73
2023-03-04T15:40:54.371Z,12.93
2023-03-04T15:43:25.392Z,14.60
2023-03-04T15:45:53.696Z,15.63
2023-03-04T15:48:23.876Z,16.03
2023-03-04T15:50:55.420Z,14.53
2023-03-04T15:53:28.269Z,14.27
2023-03-04T15:55:56.838Z,16.00
2023-03-04T15:58:24.640Z,14.73
2023-03-04T16:00:52.546Z,15.43
2023-03-04T16:03:21.397Z,16.97
2023-03-04T16:05:50.713Z,15.43
2023-03-04T16:08:21.474Z,17.03
2023-03-04T16:10:51.965Z,16.87
2023-03-04T16:13:21.705Z,17.37
2023-03-04T16:15:50.296Z,16.63
2023-03-04T16:18:18.340Z,17.03
2023-03-04T16:20:47.460Z,17.73
2023-03-04T16:23:16.696Z,16.37
2023-03-04T16:25:45.798Z,17.30
2023-03-04T16:28:15.389Z,16.30
2023-03-04T16:30:43.497Z,16.43
2023-03-04T16:33:12.069Z,17.27
2023-03-04T16:35:40.266Z,17.30
2023-03-04T16:38:13.654Z,18.17
2023-03-04T16:40:41.480Z,20.87
2023-03-04T16:43:10.875Z,20.23
2023-03-04T16:45:40.220Z,18.07
2023-03-04T16:48:08.276Z,21.40
2023-03-04T16:50:36.872Z,19.53
2023-03-04T16:53:05.115Z,19.90
2023-03-04T16:55:33.627Z,17.70
2023-03-04T16:58:01.733Z,18.47
2023-03-04T17:00:30.237Z,18.70
2023-03-04T17:03:00.452Z,16.90
2023-03-04T17:05:29.558Z,16.40
2023-03-04T17:07:57.553Z,17.17
2023-03-04T17:10:25.784Z,17.00
2023-03-04T17:12:53.580Z,18.53
2023-03-04T17:15:21.828Z,22.50
2023-03-04T17:17:50.042Z,24.30
2023-03-04T17:20:19.700Z,21.13
2023-03-04T17:22:47.562Z,19.90
2023-03-04T17:25:15.890Z,20.40
2023-03-04T17:27:43.680Z,20.27
2023-03-04T17:30:12.657Z,19.40
2023-03-04T17:32:40.942Z,21.33
2023-03-04T17:35:09.589Z,22.60
2023-03-04T17:37:39.044Z,22.33
2023-03-04T17:40:08.742Z,31.20
2023-03-04T17:42:37.072Z,18.37
2023-03-04T17:45:05.175Z,20.03
2023-03-04T17:47:35.850Z,19.43
2023-03-04T17:50:04.110Z,21.17
2023-03-04T17:52:32.179Z,20.00
2023-03-04T17:55:01.605Z,23.87
2023-03-04T17:57:29.404Z,24.70
2023-03-04T17:59:57.727Z,27.47
2023-03-04T18:02:25.455Z,31.50
2023-03-04T18:04:53.467Z,28.07
2023-03-04T18:07:21.326Z,31.97
2023-03-04T18:09:49.035Z,27.13
2023-03-04T18:12:18.746Z,27.10
2023-03-04T18:14:46.928Z,27.03
2023-03-04T18:17:14.715Z,27.33
2023-03-04T18:19:42.504Z,27.47
2023-03-04T18:22:10.439Z,25.80
2023-03-04T18:24:41.284Z,24.03
2023-03-04T18:27:11.542Z,26.03
2023-03-04T18:29:40.901Z,27.33
2023-03-04T18:32:09.123Z,24.80
2023-03-04T18:34:36.974Z,23.00
2023-03-04T18:37:04.932Z,27.50
2023-03-04T18:39:32.782Z,24.77
2023-03-04T18:42:03.109Z,26.80
2023-03-04T18:44:31.432Z,24.83
2023-03-04T18:47:00.782Z,26.90
2023-03-04T18:49:28.741Z,27.67
2023-03-04T18:51:57.539Z,27.57
2023-03-04T18:54:25.614Z,25.60
2023-03-04T18:56:55.743Z,30.17
2023-03-04T18:59:25.462Z,29.13
2023-03-04T19:01:54.967Z,32.87
2023-03-04T19:04:24.451Z,29.60
2023-03-04T19:06:52.619Z,24.33
2023-03-04T19:09:20.467Z,25.87
2023-03-04T19:11:48.757Z,22.07
2023-03-04T19:14:16.509Z,23.77
2023-03-04T19:16:44.516Z,23.83
2023-03-04T19:19:12.728Z,24.17
2023-03-04T19:21:42.028Z,21.97
2023-03-04T19:24:09.895Z,22.13
2023-03-04T19:26:37.822Z,21.73
2023-03-04T19:29:08.370Z,23.03
2023-03-04T19:31:41.156Z,21.37
2023-03-04T19:34:09.293Z,22.13
2023-03-04T19:36:37.024Z,22.03
2023-03-04T19:39:06.262Z,22.03
2023-03-04T19:41:33.950Z,25.07
2023-03-04T19:44:01.693Z,24.23
2023-03-04T19:46:29.842Z,24.03
2023-03-04T19:48:57.656Z,24.23
2023-03-04T19:51:26.581Z,25.03
2023-03-04T19:53:54.879Z,23.43
2023-03-04T19:56:24.726Z,26.33
2023-03-04T19:58:54.209Z,24.57
2023-03-04T20:01:26.025Z,25.60
2023-03-04T20:03:53.904Z,24.87
2023-03-04T20:06:24.023Z,23.13
2023-03-04T20:08:52.264Z,24.73
2023-03-04T20:11:20.014Z,24.33
2023-03-04T20:13:58.502Z,24.03
2023-03-04T20:16:26.521Z,24.33
2023-03-04T20:18:54.803Z,25.07
2023-03-04T20:21:22.981Z,24.67
2023-03-04T20:23:50.887Z,24.90
2023-03-04T20:26:20.071Z,23.63
2023-03-04T20:28:47.810Z,22.87
2023-03-04T20:31:19.995Z,25.33
2023-03-04T20:33:48.945Z,24.97
2023-03-04T20:36:16.871Z,25.20
2023-03-04T20:38:44.991Z,29.40
2023-03-04T20:41:13.023Z,31.90
2023-03-04T20:43:40.881Z,31.57
2023-03-04T20:46:33.822Z,27.83
2023-03-04T20:49:02.626Z,27.37
2023-03-04T20:51:31.261Z,24.97
2023-03-04T20:53:59.351Z,27.03
2023-03-04T20:56:27.490Z,25.07
2023-03-04T20:58:56.005Z,24.27
2023-03-04T21:01:24.408Z,24.73
2023-03-04T21:03:55.390Z,21.37
2023-03-04T21:06:25.470Z,22.03
2023-03-04T21:08:53.525Z,22.07
2023-03-04T21:11:23.517Z,17.47
2023-03-04T21:13:56.879Z,18.77
2023-03-04T21:16:26.079Z,16.83
2023-03-04T21:18:58.175Z,15.47
2023-03-04T21:21:26.882Z,16.37
2023-03-04T21:23:56.447Z,16.63
2023-03-04T21:26:24.990Z,15.17
2023-03-04T21:28:53.534Z,14.80
2023-03-04T21:31:22.598Z,15.43
2023-03-04T21:33:51.341Z,15.50
2023-03-04T21:36:23.604Z,15.37
2023-03-04T21:38:51.950Z,17.43
2023-03-04T21:41:21.312Z,17.13
2023-03-04T21:43:50.032Z,16.03
2023-03-04T21:46:18.279Z,15.93
2023-03-04T21:48:47.990Z,16.10
2023-03-04T21:51:16.994Z,14.27
2023-03-04T21:53:46.268Z,16.07
2023-03-04T21:56:14.107Z,15.20
2023-03-04T21:58:42.521Z,15.50
2023-03-04T22:01:10.888Z,14.87
2023-03-04T22:03:38.813Z,15.50
2023-03-04T22:06:07.482Z,14.73
2023-03-04T22:08:35.299Z,16.70
2023-03-04T22:11:06.098Z,15.10
2023-03-04T22:13:35.460Z,15.37
2023-03-04T22:16:03.381Z,15.90
2023-03-04T22:18:31.599Z,15.93
2023-03-04T22:21:02.571Z,15.67
2023-03-04T22:23:30.632Z,16.50
2023-03-04T22:26:02.586Z,15.97
2023-03-04T22:28:32.899Z,16.10
2023-03-04T22:31:02.069Z,15.53
2023-03-04T22:33:32.742Z,16.27
2023-03-04T22:36:00.939Z,13.93
2023-03-04T22:38:28.708Z,16.23
2023-03-04T22:40:56.419Z,16.73
2023-03-04T22:43:24.526Z,16.93
2023-03-04T22:45:54.394Z,15.77
2023-03-04T22:48:22.306Z,14.67
2023-03-04T22:50:50.505Z,14.97
2023-03-04T22:53:20.430Z,15.23
2023-03-04T22:55:48.206Z,15.33
2023-03-04T22:58:16.047Z,15.90
2023-03-04T23:00:44.116Z,15.87
2023-03-04T23:03:13.889Z,15.33
2023-03-04T23:05:42.443Z,15.87
2023-03-04T23:08:10.202Z,16.13
2023-03-04T23:10:37.860Z,15.73
2023-03-04T23:13:05.754Z,16.47
2023-03-04T23:15:34.302Z,15.77
2023-03-04T23:18:02.266Z,16.63
2023-03-04T23:20:31.653Z,15.93
2023-03-04T23:22:59.516Z,16.43
2023-03-04T23:25:27.364Z,17.27
2023-03-04T23:27:55.138Z,16.60
2023-03-04T23:30:23.331Z,17.03
2023-03-04T23:32:51.144Z,15.57
2023-03-04T23:35:19.310Z,16.77
2023-03-04T23:37:50.070Z,16.23
2023-03-04T23:40:19.183Z,16.07
2023-03-04T23:42:47.194Z,15.87
2023-03-04T23:45:14.924Z,15.93
2023-03-04T23:47:42.806Z,15.57
2023-03-04T23:50:14.052Z,17.03
2023-03-04T23:52:42.227Z,16.50
2023-03-04T23:55:14.276Z,16.33
2023-03-04T23:57:43.369Z,15.50
